sensor_id;sensor_type;location;lat;lon;timestamp;pressure;altitude;pressure_sealevel;temperature;humidity
33185;BME280;19550;42.872;25.494;2023-05-16T00:02:05;95978.13;;;15.70;100.00
33185;BME280;19550;42.872;25.494;2023-05-16T00:04:32;95983.81;;;15.74;100.00
33185;BME280;19550;42.872;25.494;2023-05-16T00:06:58;95968.22;;;15.73;100.00
33185;BME280;19550;42.872;25.494;2023-05-16T00:09:26;95970.38;;;15.79;100.00
33185;BME280;19550;42.872;25.494;2023-05-16T00:11:53;95967.34;;;15.69;100.00
33185;BME280;19550;42.872;25.494;2023-05-16T00:14:20;95963.00;;;15.71;100.00
33185;BME280;19550;42.872;25.494;2023-05-16T00:16:50;95966.34;;;15.96;100.00
33185;BME280;19550;42.872;25.494;2023-05-16T00:19:17;95967.31;;;16.42;100.00
33185;BME280;19550;42.872;25.494;2023-05-16T00:21:44;95966.72;;;16.52;100.00
33185;BME280;19550;42.872;25.494;2023-05-16T00:24:11;95965.41;;;16.65;100.00
33185;BME280;19550;42.872;25.494;2023-05-16T00:26:39;95969.72;;;16.82;100.00
33185;BME280;19550;42.872;25.494;2023-05-16T00:29:06;95981.13;;;16.93;100.00
33185;BME280;19550;42.872;25.494;2023-05-16T00:31:33;95974.53;;;17.04;100.00
33185;BME280;19550;42.872;25.494;2023-05-16T00:34:00;95972.06;;;16.99;100.00
33185;BME280;19550;42.872;25.494;2023-05-16T00:36:27;95970.09;;;16.81;100.00
33185;BME280;19550;42.872;25.494;2023-05-16T00:38:55;95972.28;;;16.68;100.00
33185;BME280;19550;42.872;25.494;2023-05-16T00:41:22;95976.97;;;16.64;100.00
33185;BME280;19550;42.872;25.494;2023-05-16T00:43:52;95973.44;;;16.67;100.00
33185;BME280;19550;42.872;25.494;2023-05-16T00:46:19;95975.88;;;16.68;100.00
33185;BME280;19550;42.872;25.494;2023-05-16T00:48:45;95970.34;;;16.72;100.00
33185;BME280;19550;42.872;25.494;2023-05-16T00:51:12;95959.50;;;16.71;100.00
33185;BME280;19550;42.872;25.494;2023-05-16T00:53:39;95961.63;;;16.58;100.00
33185;BME280;19550;42.872;25.494;2023-05-16T00:56:06;95962.81;;;16.57;100.00
33185;BME280;19550;42.872;25.494;2023-05-16T00:58:33;95956.44;;;16.98;98.92
33185;BME280;19550;42.872;25.494;2023-05-16T01:01:02;95970.47;;;17.47;94.30
33185;BME280;19550;42.872;25.494;2023-05-16T01:03:29;95964.13;;;17.73;93.24
33185;BME280;19550;42.872;25.494;2023-05-16T01:05:57;95963.50;;;17.87;91.53
33185;BME280;19550;42.872;25.494;2023-05-16T01:08:23;95962.59;;;17.57;97.02
33185;BME280;19550;42.872;25.494;2023-05-16T01:10:59;95962.00;;;17.67;93.00
33185;BME280;19550;42.872;25.494;2023-05-16T01:13:36;95966.59;;;17.56;97.66
33185;BME280;19550;42.872;25.494;2023-05-16T01:16:15;95957.78;;;17.54;94.89
33185;BME280;19550;42.872;25.494;2023-05-16T01:18:51;95974.25;;;17.59;95.87
33185;BME280;19550;42.872;25.494;2023-05-16T01:21:28;95977.75;;;17.52;95.60
33185;BME280;19550;42.872;25.494;2023-05-16T01:24:03;95994.72;;;17.14;100.00
33185;BME280;19550;42.872;25.494;2023-05-16T01:26:37;95990.66;;;17.11;100.00
33185;BME280;19550;42.872;25.494;2023-05-16T01:29:05;95988.84;;;16.99;100.00
33185;BME280;19550;42.872;25.494;2023-05-16T01:31:32;95978.25;;;16.89;100.00
33185;BME280;19550;42.872;25.494;2023-05-16T01:33:59;95982.97;;;16.85;100.00
33185;BME280;19550;42.872;25.494;2023-05-16T01:36:42;95976.00;;;16.56;100.00
33185;BME280;19550;42.872;25.494;2023-05-16T01:39:14;95967.69;;;16.41;100.00
33185;BME280;19550;42.872;25.494;2023-05-16T01:41:52;95970.19;;;16.46;100.00
33185;BME280;19550;42.872;25.494;2023-05-16T01:44:28;95966.22;;;16.66;100.00
33185;BME280;19550;42.872;25.494;2023-05-16T01:46:58;95970.91;;;16.81;99.59
33185;BME280;19550;42.872;25.494;2023-05-16T01:49:31;95962.22;;;16.86;100.00
33185;BME280;19550;42.872;25.494;2023-05-16T01:52:00;95972.06;;;16.99;97.86
33185;BME280;19550;42.872;25.494;2023-05-16T01:54:30;95974.91;;;17.26;94.89
33185;BME280;19550;42.872;25.494;2023-05-16T01:56:59;95976.47;;;17.46;92.99
33185;BME280;19550;42.872;25.494;2023-05-16T01:59:28;95961.75;;;17.53;92.97
33185;BME280;19550;42.872;25.494;2023-05-16T02:01:56;95952.34;;;17.64;91.99
33185;BME280;19550;42.872;25.494;2023-05-16T02:04:23;95964.75;;;17.63;92.31
33185;BME280;19550;42.872;25.494;2023-05-16T02:06:50;95960.72;;;17.61;93.54
33185;BME280;19550;42.872;25.494;2023-05-16T02:09:17;95952.66;;;17.59;93.37
33185;BME280;19550;42.872;25.494;2023-05-16T02:11:44;95962.34;;;17.39;96.06
33185;BME280;19550;42.872;25.494;2023-05-16T02:14:13;95951.00;;;17.32;97.63
33185;BME280;19550;42.872;25.494;2023-05-16T02:16:40;95958.53;;;17.05;100.00
33185;BME280;19550;42.872;25.494;2023-05-16T02:19:07;95960.34;;;16.94;100.00
33185;BME280;19550;42.872;25.494;2023-05-16T02:21:33;95960.13;;;16.83;100.00
33185;BME280;19550;42.872;25.494;2023-05-16T02:24:00;95954.59;;;16.64;100.00
33185;BME280;19550;42.872;25.494;2023-05-16T02:26:27;95949.94;;;16.72;100.00
33185;BME280;19550;42.872;25.494;2023-05-16T02:28:54;95943.53;;;16.71;100.00
33185;BME280;19550;42.872;25.494;2023-05-16T02:31:29;95938.25;;;16.66;100.00
33185;BME280;19550;42.872;25.494;2023-05-16T02:33:56;95944.16;;;16.61;100.00
33185;BME280;19550;42.872;25.494;2023-05-16T02:36:23;95950.31;;;16.51;100.00
33185;BME280;19550;42.872;25.494;2023-05-16T02:38:50;95946.94;;;16.42;100.00
33185;BME280;19550;42.872;25.494;2023-05-16T02:41:17;95940.59;;;16.45;100.00
33185;BME280;19550;42.872;25.494;2023-05-16T02:43:46;95935.75;;;16.22;100.00
33185;BME280;19550;42.872;25.494;2023-05-16T02:46:20;95933.53;;;16.12;100.00
33185;BME280;19550;42.872;25.494;2023-05-16T02:48:49;95939.34;;;16.04;100.00
33185;BME280;19550;42.872;25.494;2023-05-16T02:51:16;95935.72;;;15.84;100.00
33185;BME280;19550;42.872;25.494;2023-05-16T02:53:43;95934.91;;;15.83;100.00
33185;BME280;19550;42.872;25.494;2023-05-16T02:56:10;95931.16;;;15.76;100.00
33185;BME280;19550;42.872;25.494;2023-05-16T02:58:36;95932.44;;;15.63;100.00
33185;BME280;19550;42.872;25.494;2023-05-16T03:01:03;95937.69;;;15.64;100.00
33185;BME280;19550;42.872;25.494;2023-05-16T03:03:30;95931.94;;;15.57;100.00
33185;BME280;19550;42.872;25.494;2023-05-16T03:06:01;95926.59;;;15.52;100.00
33185;BME280;19550;42.872;25.494;2023-05-16T03:08:28;95928.13;;;15.49;100.00
33185;BME280;19550;42.872;25.494;2023-05-16T03:10:55;95933.94;;;15.41;100.00
33185;BME280;19550;42.872;25.494;2023-05-16T03:13:21;95925.44;;;15.37;100.00
33185;BME280;19550;42.872;25.494;2023-05-16T03:15:48;95922.94;;;15.48;100.00
33185;BME280;19550;42.872;25.494;2023-05-16T03:18:15;95933.63;;;15.46;100.00
33185;BME280;19550;42.872;25.494;2023-05-16T03:20:42;95926.38;;;15.41;100.00
33185;BME280;19550;42.872;25.494;2023-05-16T03:23:10;95919.69;;;15.46;100.00
33185;BME280;19550;42.872;25.494;2023-05-16T03:25:37;95920.78;;;15.41;100.00
33185;BME280;19550;42.872;25.494;2023-05-16T03:28:05;95917.44;;;15.36;100.00
33185;BME280;19550;42.872;25.494;2023-05-16T03:30:32;95924.16;;;15.50;100.00
33185;BME280;19550;42.872;25.494;2023-05-16T03:32:59;95926.94;;;15.50;100.00
33185;BME280;19550;42.872;25.494;2023-05-16T03:35:26;95920.50;;;15.46;100.00
33185;BME280;19550;42.872;25.494;2023-05-16T03:37:53;95932.47;;;15.47;100.00
33185;BME280;19550;42.872;25.494;2023-05-16T03:40:21;95933.41;;;15.35;100.00
33185;BME280;19550;42.872;25.494;2023-05-16T03:42:48;95929.41;;;15.36;100.00
33185;BME280;19550;42.872;25.494;2023-05-16T03:45:15;95925.09;;;15.39;100.00
33185;BME280;19550;42.872;25.494;2023-05-16T03:47:42;95939.06;;;15.39;100.00
33185;BME280;19550;42.872;25.494;2023-05-16T03:50:09;95944.81;;;15.46;100.00
33185;BME280;19550;42.872;25.494;2023-05-16T03:52:36;95938.13;;;15.50;100.00
33185;BME280;19550;42.872;25.494;2023-05-16T03:55:04;95912.19;;;15.50;100.00
33185;BME280;19550;42.872;25.494;2023-05-16T03:57:32;95935.63;;;15.61;100.00
33185;BME280;19550;42.872;25.494;2023-05-16T03:59:59;95937.50;;;15.57;100.00
33185;BME280;19550;42.872;25.494;2023-05-16T04:02:26;95941.72;;;15.51;100.00
33185;BME280;19550;42.872;25.494;2023-05-16T04:04:53;95952.00;;;15.63;100.00
33185;BME280;19550;42.872;25.494;2023-05-16T04:07:20;95947.88;;;15.57;100.00
33185;BME280;19550;42.872;25.494;2023-05-16T04:09:47;95956.72;;;15.59;100.00
33185;BME280;19550;42.872;25.494;2023-05-16T04:12:13;95945.00;;;15.53;100.00
33185;BME280;19550;42.872;25.494;2023-05-16T04:14:42;95952.28;;;15.58;100.00
33185;BME280;19550;42.872;25.494;2023-05-16T04:17:09;95945.34;;;15.67;100.00
33185;BME280;19550;42.872;25.494;2023-05-16T04:19:37;95945.22;;;15.79;100.00
33185;BME280;19550;42.872;25.494;2023-05-16T04:22:04;95947.84;;;15.72;100.00
33185;BME280;19550;42.872;25.494;2023-05-16T04:24:32;95945.88;;;15.73;100.00
33185;BME280;19550;42.872;25.494;2023-05-16T04:26:59;95942.06;;;15.81;100.00
33185;BME280;19550;42.872;25.494;2023-05-16T04:29:26;95949.94;;;15.95;100.00
33185;BME280;19550;42.872;25.494;2023-05-16T04:31:54;95949.84;;;15.91;100.00
33185;BME280;19550;42.872;25.494;2023-05-16T04:34:21;95957.53;;;15.94;100.00
33185;BME280;19550;42.872;25.494;2023-05-16T04:36:52;95960.69;;;15.93;100.00
33185;BME280;19550;42.872;25.494;2023-05-16T04:39:19;95963.19;;;15.98;100.00
33185;BME280;19550;42.872;25.494;2023-05-16T04:41:45;95966.16;;;15.89;100.00
33185;BME280;19550;42.872;25.494;2023-05-16T04:44:12;95967.16;;;15.97;100.00
33185;BME280;19550;42.872;25.494;2023-05-16T04:46:39;95967.78;;;15.90;100.00
33185;BME280;19550;42.872;25.494;2023-05-16T04:49:07;95969.59;;;15.98;100.00
33185;BME280;19550;42.872;25.494;2023-05-16T04:51:35;95969.13;;;15.96;100.00
33185;BME280;19550;42.872;25.494;2023-05-16T04:54:02;95974.81;;;16.00;100.00
33185;BME280;19550;42.872;25.494;2023-05-16T04:56:29;95966.50;;;16.03;100.00
33185;BME280;19550;42.872;25.494;2023-05-16T04:58:56;95972.53;;;16.05;100.00
33185;BME280;19550;42.872;25.494;2023-05-16T05:01:23;95970.63;;;16.09;100.00
33185;BME280;19550;42.872;25.494;2023-05-16T05:03:49;95964.00;;;16.17;100.00
33185;BME280;19550;42.872;25.494;2023-05-16T05:06:18;95970.34;;;16.14;100.00
33185;BME280;19550;42.872;25.494;2023-05-16T05:08:44;95973.56;;;16.16;100.00
33185;BME280;19550;42.872;25.494;2023-05-16T05:11:11;95958.34;;;16.14;100.00
33185;BME280;19550;42.872;25.494;2023-05-16T05:13:39;95957.03;;;16.27;100.00
33185;BME280;19550;42.872;25.494;2023-05-16T05:16:06;95965.41;;;16.27;100.00
33185;BME280;19550;42.872;25.494;2023-05-16T05:18:33;95946.78;;;16.35;100.00
33185;BME280;19550;42.872;25.494;2023-05-16T05:21:00;95952.22;;;16.47;100.00
33185;BME280;19550;42.872;25.494;2023-05-16T05:23:28;95949.75;;;16.61;100.00
33185;BME280;19550;42.872;25.494;2023-05-16T05:25:55;95953.78;;;16.63;100.00
33185;BME280;19550;42.872;25.494;2023-05-16T05:28:22;95945.47;;;16.67;100.00
33185;BME280;19550;42.872;25.494;2023-05-16T05:30:49;95955.22;;;16.77;100.00
33185;BME280;19550;42.872;25.494;2023-05-16T05:33:16;95951.69;;;16.80;100.00
33185;BME280;19550;42.872;25.494;2023-05-16T05:35:44;95952.56;;;16.84;100.00
33185;BME280;19550;42.872;25.494;2023-05-16T05:38:10;95958.38;;;16.94;100.00
33185;BME280;19550;42.872;25.494;2023-05-16T05:40:39;95959.28;;;17.02;100.00
33185;BME280;19550;42.872;25.494;2023-05-16T05:43:05;95959.81;;;17.07;100.00
33185;BME280;19550;42.872;25.494;2023-05-16T05:45:32;95961.03;;;17.10;100.00
33185;BME280;19550;42.872;25.494;2023-05-16T05:47:59;95954.25;;;17.34;100.00
33185;BME280;19550;42.872;25.494;2023-05-16T05:50:26;95954.47;;;17.48;100.00
33185;BME280;19550;42.872;25.494;2023-05-16T05:52:54;95964.19;;;17.54;100.00
33185;BME280;19550;42.872;25.494;2023-05-16T05:55:21;95959.00;;;17.56;100.00
33185;BME280;19550;42.872;25.494;2023-05-16T05:57:49;95966.81;;;17.66;100.00
33185;BME280;19550;42.872;25.494;2023-05-16T06:00:16;95955.75;;;17.77;100.00
33185;BME280;19550;42.872;25.494;2023-05-16T06:02:43;95957.13;;;17.90;100.00
33185;BME280;19550;42.872;25.494;2023-05-16T06:05:10;95951.69;;;18.01;100.00
33185;BME280;19550;42.872;25.494;2023-05-16T06:07:36;95960.91;;;18.01;100.00
33185;BME280;19550;42.872;25.494;2023-05-16T06:10:04;95955.78;;;18.07;100.00
33185;BME280;19550;42.872;25.494;2023-05-16T06:12:32;95954.81;;;18.25;100.00
33185;BME280;19550;42.872;25.494;2023-05-16T06:15:01;95958.91;;;18.32;100.00
33185;BME280;19550;42.872;25.494;2023-05-16T06:17:27;95951.00;;;18.41;100.00
33185;BME280;19550;42.872;25.494;2023-05-16T06:19:54;95957.50;;;18.48;99.06
33185;BME280;19550;42.872;25.494;2023-05-16T06:22:21;95951.25;;;18.58;97.02
33185;BME280;19550;42.872;25.494;2023-05-16T06:24:48;95953.88;;;18.78;93.59
33185;BME280;19550;42.872;25.494;2023-05-16T06:27:14;95956.19;;;19.09;90.09
33185;BME280;19550;42.872;25.494;2023-05-16T06:29:41;95952.69;;;19.19;89.49
33185;BME280;19550;42.872;25.494;2023-05-16T06:32:09;95954.84;;;19.36;89.83
33185;BME280;19550;42.872;25.494;2023-05-16T06:34:36;95953.81;;;19.52;90.13
33185;BME280;19550;42.872;25.494;2023-05-16T06:37:03;95954.72;;;19.66;87.60
33185;BME280;19550;42.872;25.494;2023-05-16T06:39:30;95957.69;;;19.88;86.83
33185;BME280;19550;42.872;25.494;2023-05-16T06:41:57;95958.22;;;20.07;86.11
33185;BME280;19550;42.872;25.494;2023-05-16T06:44:24;95951.88;;;20.24;85.32
33185;BME280;19550;42.872;25.494;2023-05-16T06:46:51;95960.03;;;20.44;84.92
33185;BME280;19550;42.872;25.494;2023-05-16T06:49:19;95957.69;;;20.60;83.45
33185;BME280;19550;42.872;25.494;2023-05-16T06:51:46;95953.72;;;20.75;82.43
33185;BME280;19550;42.872;25.494;2023-05-16T06:54:13;95954.94;;;20.78;82.82
33185;BME280;19550;42.872;25.494;2023-05-16T06:56:39;95956.16;;;20.84;83.66
33185;BME280;19550;42.872;25.494;2023-05-16T06:59:06;95960.59;;;20.88;85.79
33185;BME280;19550;42.872;25.494;2023-05-16T07:01:33;95951.78;;;20.93;83.12
33185;BME280;19550;42.872;25.494;2023-05-16T07:04:00;95951.34;;;20.91;85.05
33185;BME280;19550;42.872;25.494;2023-05-16T07:06:28;95951.34;;;20.91;89.71
33185;BME280;19550;42.872;25.494;2023-05-16T07:08:55;95962.59;;;20.88;88.84
33185;BME280;19550;42.872;25.494;2023-05-16T07:11:22;95959.78;;;20.81;88.92
33185;BME280;19550;42.872;25.494;2023-05-16T07:13:49;95961.38;;;20.78;96.60
33185;BME280;19550;42.872;25.494;2023-05-16T07:16:16;95966.63;;;20.83;97.87
33185;BME280;19550;42.872;25.494;2023-05-16T07:18:43;95970.66;;;20.86;89.09
33185;BME280;19550;42.872;25.494;2023-05-16T07:21:09;95977.13;;;20.97;80.84
33185;BME280;19550;42.872;25.494;2023-05-16T07:23:38;95976.78;;;21.13;79.63
33185;BME280;19550;42.872;25.494;2023-05-16T07:26:05;95975.22;;;21.26;79.66
33185;BME280;19550;42.872;25.494;2023-05-16T07:28:31;95974.03;;;21.34;80.54
33185;BME280;19550;42.872;25.494;2023-05-16T07:30:58;95971.97;;;21.34;84.62
33185;BME280;19550;42.872;25.494;2023-05-16T07:33:25;95983.25;;;21.34;80.83
33185;BME280;19550;42.872;25.494;2023-05-16T07:35:52;95980.06;;;21.39;81.79
33185;BME280;19550;42.872;25.494;2023-05-16T07:38:19;95982.06;;;21.32;89.92
33185;BME280;19550;42.872;25.494;2023-05-16T07:40:48;95982.84;;;21.22;85.89
33185;BME280;19550;42.872;25.494;2023-05-16T07:43:14;95981.25;;;21.28;90.58
33185;BME280;19550;42.872;25.494;2023-05-16T07:45:41;95977.22;;;21.36;77.79
33185;BME280;19550;42.872;25.494;2023-05-16T07:48:08;95982.09;;;21.53;78.66
33185;BME280;19550;42.872;25.494;2023-05-16T07:50:35;95988.13;;;21.55;77.21
33185;BME280;19550;42.872;25.494;2023-05-16T07:53:02;95985.72;;;21.47;76.64
33185;BME280;19550;42.872;25.494;2023-05-16T07:55:29;95985.31;;;21.52;75.59
33185;BME280;19550;42.872;25.494;2023-05-16T07:57:57;95991.75;;;21.45;74.63
33185;BME280;19550;42.872;25.494;2023-05-16T08:00:24;95982.91;;;21.47;74.83
33185;BME280;19550;42.872;25.494;2023-05-16T08:02:51;95996.97;;;21.43;73.85
33185;BME280;19550;42.872;25.494;2023-05-16T08:05:18;96003.44;;;21.44;73.16
33185;BME280;19550;42.872;25.494;2023-05-16T08:07:44;95995.78;;;21.40;73.97
33185;BME280;19550;42.872;25.494;2023-05-16T08:10:12;96003.84;;;21.38;74.20
33185;BME280;19550;42.872;25.494;2023-05-16T08:12:38;95997.38;;;21.31;74.95
33185;BME280;19550;42.872;25.494;2023-05-16T08:15:08;95982.06;;;21.32;76.69
33185;BME280;19550;42.872;25.494;2023-05-16T08:17:35;95983.28;;;21.27;74.62
33185;BME280;19550;42.872;25.494;2023-05-16T08:20:03;95976.03;;;21.26;75.18
33185;BME280;19550;42.872;25.494;2023-05-16T08:22:30;95986.50;;;21.33;74.47
33185;BME280;19550;42.872;25.494;2023-05-16T08:24:57;95987.31;;;21.33;76.44
33185;BME280;19550;42.872;25.494;2023-05-16T08:27:25;95990.53;;;21.35;74.72
33185;BME280;19550;42.872;25.494;2023-05-16T08:29:51;95980.88;;;21.51;73.34
33185;BME280;19550;42.872;25.494;2023-05-16T08:32:20;95981.69;;;21.62;71.71
33185;BME280;19550;42.872;25.494;2023-05-16T08:34:47;95985.31;;;21.69;71.40
33185;BME280;19550;42.872;25.494;2023-05-16T08:37:14;95986.94;;;21.70;72.31
33185;BME280;19550;42.872;25.494;2023-05-16T08:39:41;95988.53;;;21.75;72.12
33185;BME280;19550;42.872;25.494;2023-05-16T08:42:08;95983.69;;;21.83;71.86
33185;BME280;19550;42.872;25.494;2023-05-16T08:44:35;95979.66;;;21.84;71.12
33185;BME280;19550;42.872;25.494;2023-05-16T08:47:06;95986.09;;;21.95;71.08
33185;BME280;19550;42.872;25.494;2023-05-16T08:49:39;95986.53;;;21.97;68.93
33185;BME280;19550;42.872;25.494;2023-05-16T08:52:09;95979.28;;;21.99;69.35
33185;BME280;19550;42.872;25.494;2023-05-16T08:54:36;95982.91;;;22.00;69.58
33185;BME280;19550;42.872;25.494;2023-05-16T08:57:03;95982.09;;;22.03;70.66
33185;BME280;19550;42.872;25.494;2023-05-16T08:59:31;95972.44;;;21.97;70.75
33185;BME280;19550;42.872;25.494;2023-05-16T09:01:58;95969.59;;;21.90;72.41
33185;BME280;19550;42.872;25.494;2023-05-16T09:04:25;95964.75;;;21.94;71.50
33185;BME280;19550;42.872;25.494;2023-05-16T09:06:54;95959.50;;;22.13;68.75
33185;BME280;19550;42.872;25.494;2023-05-16T09:09:21;95975.22;;;22.18;70.48
33185;BME280;19550;42.872;25.494;2023-05-16T09:11:48;95975.63;;;22.16;70.28
33185;BME280;19550;42.872;25.494;2023-05-16T09:14:14;95982.06;;;22.17;70.32
33185;BME280;19550;42.872;25.494;2023-05-16T09:16:43;95975.63;;;22.09;70.36
33185;BME280;19550;42.872;25.494;2023-05-16T09:19:12;95977.25;;;22.03;70.75
33185;BME280;19550;42.872;25.494;2023-05-16T09:21:39;95982.91;;;22.07;72.44
33185;BME280;19550;42.872;25.494;2023-05-16T09:24:08;95982.91;;;22.03;72.64
33185;BME280;19550;42.872;25.494;2023-05-16T09:26:36;95975.25;;;22.00;70.43
33185;BME280;19550;42.872;25.494;2023-05-16T09:29:09;95963.16;;;22.00;70.71
33185;BME280;19550;42.872;25.494;2023-05-16T09:31:36;95971.19;;;22.15;72.12
33185;BME280;19550;42.872;25.494;2023-05-16T09:34:03;95956.69;;;22.10;71.72
33185;BME280;19550;42.872;25.494;2023-05-16T09:36:32;95963.09;;;22.21;71.39
33185;BME280;19550;42.872;25.494;2023-05-16T09:39:00;95969.16;;;22.27;69.91
33185;BME280;19550;42.872;25.494;2023-05-16T09:41:32;95966.69;;;22.39;70.06
33185;BME280;19550;42.872;25.494;2023-05-16T09:44:02;95967.91;;;22.38;69.04
33185;BME280;19550;42.872;25.494;2023-05-16T09:46:29;95972.69;;;22.55;69.14
33185;BME280;19550;42.872;25.494;2023-05-16T09:48:56;95966.25;;;22.51;69.19
33185;BME280;19550;42.872;25.494;2023-05-16T09:51:23;95969.88;;;22.59;68.69
33185;BME280;19550;42.872;25.494;2023-05-16T09:53:50;95965.81;;;22.64;68.58
33185;BME280;19550;42.872;25.494;2023-05-16T09:56:17;95958.91;;;22.68;67.99
33185;BME280;19550;42.872;25.494;2023-05-16T09:58:45;95970.25;;;22.61;68.01
33185;BME280;19550;42.872;25.494;2023-05-16T10:01:12;95972.63;;;22.70;69.38
33185;BME280;19550;42.872;25.494;2023-05-16T10:03:40;95973.03;;;22.75;68.77
33185;BME280;19550;42.872;25.494;2023-05-16T10:06:08;95972.59;;;22.84;68.78
33185;BME280;19550;42.872;25.494;2023-05-16T10:08:36;95975.84;;;22.86;68.94
33185;BME280;19550;42.872;25.494;2023-05-16T10:11:05;95960.78;;;23.07;68.72
33185;BME280;19550;42.872;25.494;2023-05-16T10:13:33;95961.97;;;23.13;67.87
33185;BME280;19550;42.872;25.494;2023-05-16T10:16:05;95950.63;;;23.16;66.97
33185;BME280;19550;42.872;25.494;2023-05-16T10:18:34;95959.84;;;23.27;67.42
33185;BME280;19550;42.872;25.494;2023-05-16T10:21:04;95945.28;;;23.32;67.49
33185;BME280;19550;42.872;25.494;2023-05-16T10:23:32;95954.06;;;23.45;68.39
33185;BME280;19550;42.872;25.494;2023-05-16T10:26:03;95951.19;;;23.56;68.35
33185;BME280;19550;42.872;25.494;2023-05-16T10:28:30;95949.91;;;23.60;65.84
33185;BME280;19550;42.872;25.494;2023-05-16T10:30:58;95941.25;;;23.82;65.50
33185;BME280;19550;42.872;25.494;2023-05-16T10:33:28;95940.78;;;23.90;66.60
33185;BME280;19550;42.872;25.494;2023-05-16T10:35:55;95937.81;;;24.04;66.01
33185;BME280;19550;42.872;25.494;2023-05-16T10:38:22;95934.44;;;24.16;65.34
33185;BME280;19550;42.872;25.494;2023-05-16T10:40:50;95938.69;;;24.39;65.39
33185;BME280;19550;42.872;25.494;2023-05-16T10:43:26;95935.88;;;24.39;64.94
33185;BME280;19550;42.872;25.494;2023-05-16T10:45:55;95927.63;;;24.48;63.85
33185;BME280;19550;42.872;25.494;2023-05-16T10:48:31;95929.88;;;24.64;65.28
33185;BME280;19550;42.872;25.494;2023-05-16T10:50:59;95922.84;;;24.75;63.89
33185;BME280;19550;42.872;25.494;2023-05-16T10:53:31;95921.91;;;24.85;62.86
33185;BME280;19550;42.872;25.494;2023-05-16T10:56:07;95919.38;;;24.94;62.50
33185;BME280;19550;42.872;25.494;2023-05-16T10:58:45;95912.81;;;25.01;61.99
33185;BME280;19550;42.872;25.494;2023-05-16T11:01:17;95911.91;;;25.08;64.38
33185;BME280;19550;42.872;25.494;2023-05-16T11:04:06;95904.28;;;25.01;66.62
33185;BME280;19550;42.872;25.494;2023-05-16T11:06:34;95903.50;;;25.01;62.30
33185;BME280;19550;42.872;25.494;2023-05-16T11:09:06;95896.50;;;25.09;63.02
33185;BME280;19550;42.872;25.494;2023-05-16T11:11:38;95891.50;;;25.16;61.39
33185;BME280;19550;42.872;25.494;2023-05-16T11:14:05;95888.97;;;25.25;60.17
33185;BME280;19550;42.872;25.494;2023-05-16T11:16:33;95880.19;;;25.40;61.65
33185;BME280;19550;42.872;25.494;2023-05-16T11:19:05;95879.06;;;25.60;59.69
33185;BME280;19550;42.872;25.494;2023-05-16T11:22:06;95865.84;;;25.50;59.21
33185;BME280;19550;42.872;25.494;2023-05-16T11:24:34;95868.09;;;25.62;61.08
33185;BME280;19550;42.872;25.494;2023-05-16T11:27:03;95864.50;;;25.82;59.27
33185;BME280;19550;42.872;25.494;2023-05-16T11:29:30;95865.34;;;26.02;57.50
33185;BME280;19550;42.872;25.494;2023-05-16T11:31:58;95863.53;;;25.92;56.97
33185;BME280;19550;42.872;25.494;2023-05-16T11:34:26;95859.69;;;26.22;55.77
33185;BME280;19550;42.872;25.494;2023-05-16T11:36:53;95852.72;;;26.26;56.01
33185;BME280;19550;42.872;25.494;2023-05-16T11:39:20;95863.75;;;26.21;56.10
33185;BME280;19550;42.872;25.494;2023-05-16T11:41:49;95859.16;;;26.30;55.52
33185;BME280;19550;42.872;25.494;2023-05-16T11:44:15;95858.59;;;26.16;55.30
33185;BME280;19550;42.872;25.494;2023-05-16T11:46:42;95855.84;;;26.12;56.21
33185;BME280;19550;42.872;25.494;2023-05-16T11:49:10;95851.31;;;26.15;55.94
33185;BME280;19550;42.872;25.494;2023-05-16T11:51:39;95833.28;;;26.25;55.21
33185;BME280;19550;42.872;25.494;2023-05-16T11:54:06;95836.28;;;26.14;57.86
33185;BME280;19550;42.872;25.494;2023-05-16T11:56:35;95828.03;;;26.00;56.69
33185;BME280;19550;42.872;25.494;2023-05-16T11:59:02;95836.34;;;25.91;54.53
33185;BME280;19550;42.872;25.494;2023-05-16T12:01:33;95828.25;;;25.89;56.61
33185;BME280;19550;42.872;25.494;2023-05-16T12:03:59;95828.34;;;25.86;58.52
33185;BME280;19550;42.872;25.494;2023-05-16T12:06:26;95826.50;;;25.95;57.08
33185;BME280;19550;42.872;25.494;2023-05-16T12:08:56;95830.16;;;25.96;54.94
33185;BME280;19550;42.872;25.494;2023-05-16T12:11:23;95836.84;;;25.86;54.38
33185;BME280;19550;42.872;25.494;2023-05-16T12:13:50;95845.50;;;25.79;53.46
33185;BME280;19550;42.872;25.494;2023-05-16T12:16:18;95839.06;;;25.75;54.30
33185;BME280;19550;42.872;25.494;2023-05-16T12:18:46;95830.69;;;25.67;55.80
33185;BME280;19550;42.872;25.494;2023-05-16T12:21:14;95837.59;;;25.66;56.06
33185;BME280;19550;42.872;25.494;2023-05-16T12:23:41;95857.34;;;25.73;56.11
33185;BME280;19550;42.872;25.494;2023-05-16T12:26:09;95856.72;;;25.39;55.75
33185;BME280;19550;42.872;25.494;2023-05-16T12:28:36;95847.06;;;25.33;57.75
33185;BME280;19550;42.872;25.494;2023-05-16T12:31:10;95849.28;;;25.22;56.70
33185;BME280;19550;42.872;25.494;2023-05-16T12:33:38;95846.94;;;25.17;56.27
33185;BME280;19550;42.872;25.494;2023-05-16T12:36:11;95837.13;;;25.21;57.34
33185;BME280;19550;42.872;25.494;2023-05-16T12:38:38;95841.25;;;25.17;54.22
33185;BME280;19550;42.872;25.494;2023-05-16T12:41:05;95847.31;;;25.19;52.49
33185;BME280;19550;42.872;25.494;2023-05-16T12:43:33;95852.59;;;24.90;54.06
33185;BME280;19550;42.872;25.494;2023-05-16T12:46:00;95863.53;;;24.88;53.18
33185;BME280;19550;42.872;25.494;2023-05-16T12:48:31;95874.63;;;24.79;54.43
33185;BME280;19550;42.872;25.494;2023-05-16T12:51:09;95877.97;;;24.70;54.97